Terminal Aerodrome Forecast
Issued by NWS Indianapolis, IN

Home | Current Version | Previous Version | Text Only | Print | Product List | Glossary On
Versions: 1 2 3 4 5 6 7 8 9 10 11 12 13 14 15 16 17 18 19 20 21 22 23 24 25 26 27 28 29
000
FTUS43 KIND 291700
TAFIND
TAF
KIND 291722Z 2918/3024 20010G18KT P6SM VCTS SCT035CB BKN080
     FM300200 19007KT P6SM BKN080
     FM301200 19009KT 5SM -SHRA BKN025
     FM301800 21010KT P6SM VCTS SCT025CB BKN050=

USA.gov is the U.S. government's official web portal to all federal, state and local government web resources and services.